Time;durP1;ratioP1;P1;durP2;ratioP2;P2;SDS_P1;SDS_P2;PMS_P1;PMS_P2;Temp;Humidity;BMP_temperature;BMP_pressure;BME280_temperature;BME280_humidity;BME280_pressure;Samples;Min_cycle;Max_cycle;Signal;HPM_P1;HPM_P2
2023/03/03 00:00:45;;;;;;;46.10;22.05;;;2.90;82.80;;;;;;5094122;28;20050;-81
2023/03/03 00:03:15;;;;;;;37.37;19.73;;;2.90;82.80;;;;;;5109126;28;20028;-81
2023/03/03 00:05:41;;;;;;;34.10;19.15;;;2.90;82.80;;;;;;5077764;28;20042;-80
2023/03/03 00:08:07;;;;;;;37.43;18.57;;;2.90;82.70;;;;;;5077510;28;20043;-80
2023/03/03 00:10:33;;;;;;;37.30;19.00;;;2.90;82.80;;;;;;5077031;28;20043;-81
2023/03/03 00:12:59;;;;;;;35.53;17.70;;;2.90;82.70;;;;;;5077369;28;20058;-80
2023/03/03 00:15:25;;;;;;;35.28;17.35;;;2.90;82.80;;;;;;5094094;28;20036;-80
2023/03/03 00:17:52;;;;;;;42.70;20.03;;;2.90;82.90;;;;;;5077144;28;20035;-80
2023/03/03 00:20:39;;;;;;;37.35;19.58;;;2.90;82.80;;;;;;5110665;28;20036;-80
2023/03/03 00:23:33;;;;;;;36.67;19.07;;;2.90;82.90;;;;;;5128086;27;20062;-81
2023/03/03 00:25:59;;;;;;;44.10;19.35;;;2.90;83.00;;;;;;5090242;28;20048;-80
2023/03/03 00:28:38;;;;;;;38.95;17.95;;;2.90;83.10;;;;;;5081909;28;20110;-80
2023/03/03 00:31:41;;;;;;;37.90;17.73;;;2.90;83.10;;;;;;5114567;28;20444;-80
2023/03/03 00:34:16;;;;;;;37.37;18.10;;;2.90;83.10;;;;;;5056506;28;20087;-81
2023/03/03 00:36:42;;;;;;;34.83;17.65;;;2.90;83.20;;;;;;5056932;28;20089;-80
2023/03/03 00:39:29;;;;;;;33.20;17.50;;;2.90;83.40;;;;;;5073349;28;20037;-80
2023/03/03 00:41:56;;;;;;;37.93;17.40;;;3.00;83.40;;;;;;5080567;28;20115;-81
2023/03/03 00:44:40;;;;;;;32.20;17.20;;;3.00;83.50;;;;;;5113272;28;20039;-80
2023/03/03 00:47:25;;;;;;;42.95;18.42;;;3.20;83.60;;;;;;5093528;28;20040;-80
2023/03/03 00:49:51;;;;;;;37.53;18.27;;;3.00;83.50;;;;;;5093250;28;20495;-80
2023/03/03 00:52:18;;;;;;;37.23;19.37;;;3.20;83.50;;;;;;5076664;28;20048;-80
2023/03/03 00:54:45;;;;;;;40.97;19.60;;;3.20;83.50;;;;;;5076578;28;20044;-80
2023/03/03 00:57:14;;;;;;;39.90;18.52;;;3.30;83.70;;;;;;5076609;28;20044;-81
2023/03/03 00:59:40;;;;;;;33.33;18.60;;;3.10;83.60;;;;;;5093186;28;20044;-80
2023/03/03 01:02:05;;;;;;;37.63;18.33;;;3.10;83.60;;;;;;5093339;28;20039;-80
2023/03/03 01:04:31;;;;;;;33.00;17.40;;;3.10;83.70;;;;;;5093158;28;20032;-80
2023/03/03 01:06:57;;;;;;;32.42;16.90;;;3.10;83.70;;;;;;5076680;28;20059;-80
2023/03/03 01:09:23;;;;;;;32.93;17.90;;;3.10;83.80;;;;;;5104162;28;20044;-80
2023/03/03 01:11:50;;;;;;;37.00;19.00;;;3.20;84.00;;;;;;5095911;28;20040;-80
2023/03/03 01:14:16;;;;;;;35.85;16.73;;;3.20;84.00;;;;;;5076697;28;20361;-80
2023/03/03 01:16:41;;;;;;;33.83;17.40;;;3.30;84.00;;;;;;5094196;28;20092;-80
2023/03/03 01:19:07;;;;;;;30.95;15.98;;;3.30;83.90;;;;;;5103019;28;20044;-80
2023/03/03 01:21:33;;;;;;;45.58;19.05;;;3.30;83.80;;;;;;5076294;28;20460;-80
2023/03/03 01:23:59;;;;;;;42.07;18.37;;;3.30;83.80;;;;;;5076026;28;20067;-80
2023/03/03 01:26:24;;;;;;;38.75;19.00;;;3.30;83.80;;;;;;5127073;27;20036;-80
2023/03/03 01:28:50;;;;;;;44.50;19.13;;;3.30;83.70;;;;;;5126889;27;20483;-80
2023/03/03 01:31:16;;;;;;;35.42;18.92;;;3.30;83.70;;;;;;5092813;28;20040;-80
2023/03/03 01:33:42;;;;;;;44.75;17.08;;;3.40;83.70;;;;;;5109819;27;20044;-80
2023/03/03 01:36:08;;;;;;;31.88;16.48;;;3.40;83.70;;;;;;5072379;28;20080;-80
2023/03/03 01:38:38;;;;;;;32.20;17.50;;;3.40;83.60;;;;;;5075561;28;20070;-80
2023/03/03 01:41:04;;;;;;;32.70;16.88;;;3.40;83.70;;;;;;5075768;28;20044;-78
2023/03/03 01:43:31;;;;;;;33.53;17.90;;;3.40;83.70;;;;;;5075559;28;20036;-80
2023/03/03 01:45:57;;;;;;;33.95;18.02;;;3.40;83.70;;;;;;5093832;28;20035;-80
2023/03/03 01:48:33;;;;;;;36.97;17.83;;;3.40;83.70;;;;;;5113182;28;20035;-80
2023/03/03 01:51:29;;;;;;;36.70;17.35;;;3.40;83.80;;;;;;5108826;28;20063;-80
2023/03/03 01:53:58;;;;;;;29.85;15.88;;;3.50;83.80;;;;;;5117138;27;20087;-80
2023/03/03 01:56:25;;;;;;;40.65;19.77;;;3.50;83.70;;;;;;5089016;28;20040;-80
2023/03/03 01:59:02;;;;;;;31.13;16.95;;;3.70;83.80;;;;;;5071553;28;20098;-80
2023/03/03 02:01:30;;;;;;;32.90;16.38;;;3.50;83.70;;;;;;5088305;28;20079;-80
2023/03/03 02:03:56;;;;;;;26.70;15.32;;;3.50;83.60;;;;;;5067026;28;20040;-80
2023/03/03 02:06:27;;;;;;;32.55;15.77;;;3.50;83.60;;;;;;5058502;28;20653;-80
2023/03/03 02:09:26;;;;;;;27.52;14.45;;;3.60;83.70;;;;;;5092508;28;20048;-80
2023/03/03 02:11:55;;;;;;;20.35;11.52;;;3.60;83.70;;;;;;5075308;28;20047;-80
2023/03/03 02:14:20;;;;;;;22.02;11.32;;;3.60;83.60;;;;;;5091911;28;20039;-80
2023/03/03 02:16:46;;;;;;;20.52;10.82;;;3.60;83.50;;;;;;5092164;28;20036;-80
2023/03/03 02:19:27;;;;;;;17.15;10.00;;;3.60;83.40;;;;;;5058434;28;20035;-80
2023/03/03 02:21:54;;;;;;;20.08;9.77;;;3.60;83.30;;;;;;5075095;28;20051;-80
2023/03/03 02:24:28;;;;;;;15.85;9.02;;;3.60;83.20;;;;;;5075050;28;20519;-80
2023/03/03 02:26:55;;;;;;;19.77;10.48;;;3.60;83.20;;;;;;5092008;28;20043;-80
2023/03/03 02:29:20;;;;;;;21.42;10.10;;;3.60;83.20;;;;;;5092303;28;20101;-80
2023/03/03 02:31:46;;;;;;;16.05;9.55;;;3.70;83.30;;;;;;5075476;28;20131;-80
2023/03/03 02:34:13;;;;;;;20.48;10.35;;;3.60;83.30;;;;;;5082467;28;20512;-80
2023/03/03 02:36:39;;;;;;;17.15;9.43;;;3.60;83.20;;;;;;5094311;28;20111;-80
2023/03/03 02:39:25;;;;;;;22.52;9.45;;;3.60;83.20;;;;;;5092162;28;20550;-80
2023/03/03 02:41:57;;;;;;;19.67;10.52;;;3.60;83.20;;;;;;5109333;28;20040;-80
2023/03/03 02:44:26;;;;;;;19.92;9.50;;;3.60;83.10;;;;;;5084099;28;20391;-80
2023/03/03 02:46:53;;;;;;;17.05;9.73;;;3.60;83.10;;;;;;5112242;28;20035;-80
2023/03/03 02:49:22;;;;;;;20.20;10.05;;;3.70;83.20;;;;;;5095507;28;20058;-80
2023/03/03 02:51:49;;;;;;;18.83;9.50;;;3.80;83.20;;;;;;5111502;28;20596;-80
2023/03/03 02:54:16;;;;;;;15.63;10.02;;;3.80;83.30;;;;;;5091950;28;20391;-80
2023/03/03 02:56:42;;;;;;;29.38;11.55;;;3.60;83.20;;;;;;5071355;28;20484;-80
2023/03/03 02:59:08;;;;;;;23.90;10.73;;;3.70;83.30;;;;;;5084562;28;20056;-80
2023/03/03 03:01:35;;;;;;;19.20;10.55;;;3.60;83.20;;;;;;5074786;28;20097;-80
2023/03/03 03:04:16;;;;;;;21.17;11.02;;;3.60;83.30;;;;;;5080437;28;20544;-80
2023/03/03 03:06:42;;;;;;;20.40;10.60;;;3.70;83.50;;;;;;5111826;28;20040;-80
2023/03/03 03:09:09;;;;;;;18.48;9.65;;;3.70;83.50;;;;;;5111555;28;20047;-80
2023/03/03 03:11:35;;;;;;;17.55;9.65;;;3.70;83.40;;;;;;5091829;28;20040;-79
2023/03/03 03:14:02;;;;;;;24.83;10.18;;;3.70;83.50;;;;;;5094429;28;20040;-80
2023/03/03 03:16:28;;;;;;;18.52;10.38;;;3.70;83.50;;;;;;5095553;28;20044;-80
2023/03/03 03:18:54;;;;;;;18.95;9.82;;;4.00;83.70;;;;;;5078181;28;20040;-81
2023/03/03 03:21:20;;;;;;;17.27;10.10;;;3.70;83.60;;;;;;5061484;28;20032;-80
2023/03/03 03:23:46;;;;;;;18.33;9.73;;;3.80;83.60;;;;;;5114191;27;20059;-79
2023/03/03 03:26:12;;;;;;;15.85;9.00;;;4.00;83.80;;;;;;5095097;28;20039;-81
2023/03/03 03:28:38;;;;;;;16.58;9.43;;;3.80;83.60;;;;;;5078024;28;20598;-81
2023/03/03 03:31:05;;;;;;;13.05;7.70;;;3.80;83.70;;;;;;5095029;28;20036;-73
2023/03/03 03:33:30;;;;;;;24.65;9.32;;;3.90;83.70;;;;;;5094473;28;20032;-71
2023/03/03 03:35:59;;;;;;;20.10;9.00;;;4.00;83.70;;;;;;5127986;27;20372;-72
2023/03/03 03:38:26;;;;;;;19.40;7.93;;;3.90;83.60;;;;;;5077507;28;20031;-72
2023/03/03 03:40:55;;;;;;;14.75;8.38;;;3.90;83.50;;;;;;5094652;28;20123;-80
2023/03/03 03:43:21;;;;;;;26.15;8.85;;;3.90;83.40;;;;;;5094708;28;20039;-80
2023/03/03 03:45:47;;;;;;;17.63;8.52;;;3.90;83.40;;;;;;5094506;28;20025;-73
2023/03/03 03:48:13;;;;;;;13.02;7.63;;;4.00;83.50;;;;;;5057518;28;20467;-73
2023/03/03 03:50:38;;;;;;;14.93;8.50;;;4.10;83.60;;;;;;5057343;28;20041;-80
2023/03/03 03:53:05;;;;;;;15.95;8.43;;;4.20;83.60;;;;;;5074820;28;20483;-80
2023/03/03 03:55:30;;;;;;;17.35;9.05;;;3.90;83.40;;;;;;5074759;28;20032;-80
2023/03/03 03:57:56;;;;;;;16.63;8.80;;;4.00;83.50;;;;;;5060815;28;20120;-80
2023/03/03 04:00:22;;;;;;;15.90;8.45;;;4.00;83.40;;;;;;5077387;28;20087;-80
2023/03/03 04:02:48;;;;;;;14.82;8.77;;;3.90;83.40;;;;;;5078100;28;20093;-79
2023/03/03 04:05:14;;;;;;;20.38;8.30;;;4.00;83.40;;;;;;5060717;28;20036;-80
2023/03/03 04:07:40;;;;;;;14.07;8.10;;;3.90;83.40;;;;;;5077991;28;20050;-80
2023/03/03 04:10:06;;;;;;;16.67;8.93;;;4.00;83.50;;;;;;5060740;28;20402;-73
2023/03/03 04:12:37;;;;;;;17.30;8.50;;;4.00;83.50;;;;;;5093923;28;20040;-73
2023/03/03 04:15:08;;;;;;;13.15;8.27;;;3.90;83.40;;;;;;5094037;28;20499;-73
2023/03/03 04:17:34;;;;;;;15.35;8.70;;;4.00;83.50;;;;;;5076760;28;20040;-73
2023/03/03 04:20:01;;;;;;;13.68;8.45;;;4.00;83.50;;;;;;5083153;28;20100;-73
2023/03/03 04:22:28;;;;;;;14.52;7.97;;;4.20;83.60;;;;;;5077140;28;20445;-73
2023/03/03 04:24:54;;;;;;;15.70;8.52;;;4.00;83.60;;;;;;5086488;28;20165;-80
2023/03/03 04:27:19;;;;;;;16.48;8.68;;;4.00;83.60;;;;;;5114516;28;20127;-79
2023/03/03 04:29:45;;;;;;;13.18;8.18;;;4.10;83.60;;;;;;5078901;28;20475;-72
2023/03/03 04:32:11;;;;;;;11.30;7.68;;;4.10;83.60;;;;;;5093445;28;20483;-79
2023/03/03 04:34:36;;;;;;;16.70;7.55;;;4.20;83.60;;;;;;5093703;28;20411;-79
2023/03/03 04:37:02;;;;;;;11.73;7.40;;;4.20;83.50;;;;;;5093893;28;20241;-80
2023/03/03 04:39:28;;;;;;;12.43;7.18;;;4.20;83.30;;;;;;5073041;28;20097;-80
2023/03/03 04:41:54;;;;;;;11.40;7.15;;;4.20;83.20;;;;;;5079960;28;20071;-73
2023/03/03 04:44:19;;;;;;;14.48;7.45;;;4.20;83.10;;;;;;5096649;28;20044;-72
2023/03/03 04:46:45;;;;;;;10.45;6.63;;;4.30;83.10;;;;;;5102732;28;20032;-72
2023/03/03 04:49:11;;;;;;;11.82;6.97;;;4.30;82.90;;;;;;5094463;28;20040;-79
2023/03/03 04:51:36;;;;;;;10.27;6.30;;;4.30;82.70;;;;;;5076353;28;20044;-72
2023/03/03 04:54:02;;;;;;;10.27;7.18;;;4.30;82.60;;;;;;5075639;28;20076;-72
2023/03/03 04:56:30;;;;;;;9.85;6.05;;;4.30;82.40;;;;;;5092946;28;20107;-72
2023/03/03 04:58:56;;;;;;;7.70;5.57;;;4.40;82.30;;;;;;5092828;28;20060;-72
2023/03/03 05:01:22;;;;;;;9.75;6.72;;;4.40;82.00;;;;;;5092874;28;20044;-72
2023/03/03 05:03:48;;;;;;;10.32;6.20;;;4.40;81.80;;;;;;5075627;28;20108;-72
2023/03/03 05:06:14;;;;;;;8.73;5.80;;;4.40;81.60;;;;;;5092281;28;20039;-72
2023/03/03 05:08:42;;;;;;;9.32;5.97;;;4.40;81.40;;;;;;5076082;28;20040;-72
2023/03/03 05:11:08;;;;;;;10.07;5.40;;;4.40;81.20;;;;;;5075558;28;20036;-72
2023/03/03 05:13:34;;;;;;;7.25;5.18;;;4.60;81.20;;;;;;5075745;28;20044;-72
2023/03/03 05:15:59;;;;;;;7.43;5.25;;;4.40;80.90;;;;;;5075812;28;20044;-72
2023/03/03 05:18:26;;;;;;;6.90;4.65;;;4.40;80.70;;;;;;5080356;28;20537;-72
2023/03/03 05:20:52;;;;;;;11.45;4.93;;;4.40;80.60;;;;;;5092116;28;20039;-72
2023/03/03 05:23:19;;;;;;;7.90;5.30;;;4.50;80.60;;;;;;5075408;28;20479;-72
2023/03/03 05:25:49;;;;;;;7.47;5.10;;;4.50;80.40;;;;;;5092391;28;20055;-72
2023/03/03 05:28:15;;;;;;;8.15;4.50;;;4.40;80.30;;;;;;5075713;28;20028;-73
2023/03/03 05:30:41;;;;;;;6.63;4.68;;;4.50;80.20;;;;;;5126780;27;20043;-72
2023/03/03 05:33:07;;;;;;;19.48;4.85;;;4.40;79.90;;;;;;5092459;28;20448;-72
2023/03/03 05:35:33;;;;;;;7.05;4.75;;;4.40;79.70;;;;;;5092331;28;20036;-72
2023/03/03 05:38:00;;;;;;;6.97;4.63;;;4.30;79.50;;;;;;5074434;28;20102;-72
2023/03/03 05:40:26;;;;;;;7.18;5.07;;;4.40;79.70;;;;;;5091813;28;20402;-72
2023/03/03 05:42:52;;;;;;;6.70;4.38;;;4.40;79.70;;;;;;5075666;28;20564;-72
2023/03/03 05:45:23;;;;;;;6.53;4.47;;;4.30;79.60;;;;;;5092167;28;20040;-72
2023/03/03 05:47:52;;;;;;;5.25;4.00;;;4.30;79.60;;;;;;5093472;28;20040;-72
2023/03/03 05:50:20;;;;;;;5.22;3.80;;;4.30;79.60;;;;;;5092408;28;20451;-73
2023/03/03 05:52:49;;;;;;;6.68;4.22;;;4.40;79.70;;;;;;5092027;28;20376;-73
2023/03/03 05:55:15;;;;;;;6.05;4.15;;;4.50;79.70;;;;;;5091733;28;20552;-73
2023/03/03 05:57:41;;;;;;;11.55;3.97;;;4.30;79.60;;;;;;5090910;28;20040;-73
2023/03/03 06:00:08;;;;;;;5.68;4.15;;;4.40;79.50;;;;;;5091671;28;20052;-72
2023/03/03 06:02:34;;;;;;;6.35;4.10;;;4.30;79.20;;;;;;5125725;27;20040;-72
2023/03/03 06:04:59;;;;;;;5.60;4.07;;;4.40;79.20;;;;;;5088566;28;20047;-73
2023/03/03 06:07:25;;;;;;;5.13;3.80;;;4.40;79.10;;;;;;5116645;27;20028;-72
2023/03/03 06:09:51;;;;;;;5.00;3.58;;;4.30;79.10;;;;;;5074971;28;20036;-72
2023/03/03 06:12:16;;;;;;;5.18;3.70;;;4.40;79.10;;;;;;5075181;28;20039;-73
2023/03/03 06:14:42;;;;;;;8.43;4.20;;;4.40;79.00;;;;;;5074897;28;20093;-73
2023/03/03 06:17:09;;;;;;;7.10;4.20;;;4.40;79.00;;;;;;5075115;28;20043;-73
2023/03/03 06:19:36;;;;;;;4.15;3.10;;;4.40;79.00;;;;;;5074763;28;20044;-73
2023/03/03 06:22:01;;;;;;;6.03;3.42;;;4.40;78.90;;;;;;5058429;28;20127;-77
2023/03/03 06:24:29;;;;;;;6.80;3.38;;;4.40;78.80;;;;;;5077467;28;20071;-74
2023/03/03 06:26:56;;;;;;;9.32;3.90;;;4.40;78.80;;;;;;5075062;28;20058;-74
2023/03/03 06:29:22;;;;;;;4.57;3.13;;;4.30;78.50;;;;;;5091627;28;20036;-75
2023/03/03 06:31:48;;;;;;;6.25;3.20;;;4.30;78.40;;;;;;5074989;28;20101;-75
2023/03/03 06:34:13;;;;;;;4.80;3.00;;;4.30;78.40;;;;;;5091287;28;20088;-75
2023/03/03 06:36:39;;;;;;;5.88;3.40;;;4.60;78.70;;;;;;5090999;28;20044;-75
2023/03/03 06:39:05;;;;;;;3.95;2.70;;;4.40;78.60;;;;;;5091856;28;20037;-75
2023/03/03 06:41:30;;;;;;;5.57;3.80;;;4.30;78.50;;;;;;5062181;28;20068;-75
2023/03/03 06:43:57;;;;;;;4.82;3.40;;;4.30;78.50;;;;;;5073660;28;20071;-75
2023/03/03 06:46:23;;;;;;;7.00;4.22;;;4.30;78.60;;;;;;5096795;28;20067;-75
2023/03/03 06:48:48;;;;;;;7.20;3.83;;;4.50;78.80;;;;;;5108274;28;20078;-75
2023/03/03 06:51:46;;;;;;;5.53;3.90;;;4.30;78.60;;;;;;5061850;28;20364;-75
2023/03/03 06:54:17;;;;;;;8.13;5.03;;;4.40;78.70;;;;;;5091427;28;20051;-75
2023/03/03 06:56:44;;;;;;;5.88;4.40;;;4.40;78.70;;;;;;5102315;28;20070;-75
2023/03/03 06:59:19;;;;;;;4.82;3.53;;;4.40;78.70;;;;;;5095172;28;20086;-75
2023/03/03 07:01:47;;;;;;;4.90;3.45;;;4.40;78.60;;;;;;5078359;28;20040;-75
2023/03/03 07:04:18;;;;;;;4.70;3.40;;;4.40;78.70;;;;;;5095382;28;20040;-75
2023/03/03 07:06:44;;;;;;;4.60;3.10;;;4.40;78.60;;;;;;5091509;28;20031;-75
2023/03/03 07:09:25;;;;;;;4.75;3.38;;;4.40;78.60;;;;;;5115867;28;20391;-75
2023/03/03 07:11:55;;;;;;;4.03;3.05;;;4.40;78.50;;;;;;5078725;28;20054;-75
2023/03/03 07:14:21;;;;;;;5.55;3.45;;;4.50;78.60;;;;;;5078934;28;20048;-75
2023/03/03 07:16:53;;;;;;;3.53;2.67;;;4.40;78.40;;;;;;5086285;28;20538;-75
2023/03/03 07:19:28;;;;;;;4.35;2.88;;;4.40;78.30;;;;;;5057940;28;20094;-75
2023/03/03 07:21:54;;;;;;;4.28;3.00;;;4.40;78.20;;;;;;5089193;28;20036;-75
2023/03/03 07:24:30;;;;;;;3.85;3.03;;;4.40;78.20;;;;;;5058890;28;20029;-74
2023/03/03 07:27:19;;;;;;;4.40;3.13;;;4.50;78.20;;;;;;5095300;28;20077;-75
2023/03/03 07:29:50;;;;;;;5.25;2.90;;;4.50;78.20;;;;;;5067296;28;20055;-75
2023/03/03 07:32:34;;;;;;;4.90;3.42;;;4.50;78.20;;;;;;5095080;28;20039;-75
2023/03/03 07:35:01;;;;;;;3.67;2.80;;;4.50;78.00;;;;;;5077621;28;20047;-75
2023/03/03 07:37:33;;;;;;;4.07;2.95;;;4.50;77.90;;;;;;5083317;28;20047;-74
2023/03/03 07:40:00;;;;;;;3.65;2.90;;;4.40;77.90;;;;;;5094223;28;20055;-75
2023/03/03 07:42:30;;;;;;;10.38;3.35;;;4.50;77.90;;;;;;5077636;28;20036;-74
2023/03/03 07:44:58;;;;;;;3.72;2.88;;;4.50;77.70;;;;;;5094270;28;20036;-74
2023/03/03 07:47:28;;;;;;;4.22;2.70;;;4.40;77.50;;;;;;5077731;28;20047;-73
2023/03/03 07:50:17;;;;;;;4.15;3.13;;;4.40;77.70;;;;;;5077414;28;20047;-75
2023/03/03 07:52:57;;;;;;;4.15;2.80;;;4.40;77.70;;;;;;5083198;28;20512;-74
2023/03/03 07:55:30;;;;;;;3.75;2.60;;;4.50;78.00;;;;;;5076556;28;20074;-75
2023/03/03 07:58:14;;;;;;;3.45;2.53;;;4.50;78.10;;;;;;5094202;28;20113;-74
2023/03/03 08:01:11;;;;;;;3.50;2.75;;;4.50;78.10;;;;;;5092924;28;20130;-75
2023/03/03 08:03:37;;;;;;;3.80;2.95;;;4.50;78.10;;;;;;5094100;28;20044;-74
2023/03/03 08:06:35;;;;;;;4.47;2.78;;;4.50;78.20;;;;;;5093976;28;20036;-74
2023/03/03 08:09:06;;;;;;;3.28;2.20;;;4.60;78.10;;;;;;5093065;28;20503;-74
2023/03/03 08:11:32;;;;;;;3.85;2.80;;;4.60;78.20;;;;;;5077061;28;20039;-74
2023/03/03 08:13:58;;;;;;;3.95;2.60;;;4.60;78.20;;;;;;5060572;28;20046;-74
2023/03/03 08:16:36;;;;;;;4.07;2.60;;;4.70;78.20;;;;;;5059918;28;20036;-74
2023/03/03 08:19:03;;;;;;;3.60;2.80;;;4.80;78.20;;;;;;5093268;28;20036;-74
2023/03/03 08:21:31;;;;;;;3.92;3.17;;;4.70;78.10;;;;;;5076711;28;20038;-74
2023/03/03 08:23:56;;;;;;;9.82;3.60;;;4.80;78.00;;;;;;5093467;28;20472;-74
2023/03/03 08:26:24;;;;;;;4.28;3.22;;;4.80;77.90;;;;;;5093298;28;20093;-74
2023/03/03 08:28:51;;;;;;;3.55;2.70;;;4.80;77.90;;;;;;5060420;28;20033;-74
2023/03/03 08:31:17;;;;;;;5.60;3.05;;;4.90;78.20;;;;;;5093121;28;20028;-74
2023/03/03 08:33:44;;;;;;;4.07;2.90;;;4.90;78.20;;;;;;5093014;28;20127;-75
2023/03/03 08:36:10;;;;;;;3.95;2.92;;;5.00;78.10;;;;;;5076400;28;20043;-74
2023/03/03 08:38:36;;;;;;;4.55;2.90;;;5.00;78.10;;;;;;5076259;28;20113;-74
2023/03/03 08:41:03;;;;;;;3.10;2.33;;;5.00;78.30;;;;;;5097389;28;20487;-74
2023/03/03 08:43:28;;;;;;;4.18;2.70;;;5.00;78.20;;;;;;5083931;28;20039;-74
2023/03/03 08:45:58;;;;;;;5.47;2.70;;;5.10;78.20;;;;;;5059627;28;20395;-74
2023/03/03 08:48:24;;;;;;;5.18;2.90;;;5.30;78.40;;;;;;5095602;28;20040;-74
2023/03/03 08:50:50;;;;;;;3.63;2.47;;;5.20;78.40;;;;;;5088241;28;20051;-74
2023/03/03 08:53:17;;;;;;;3.58;2.83;;;5.20;78.60;;;;;;5092809;28;20047;-74
2023/03/03 08:55:43;;;;;;;4.70;2.70;;;5.30;78.50;;;;;;5080240;28;20044;-74
2023/03/03 08:58:09;;;;;;;5.03;2.85;;;5.30;78.30;;;;;;5092685;28;20089;-74
2023/03/03 09:00:35;;;;;;;3.63;2.25;;;5.40;78.30;;;;;;5092337;28;20117;-74
2023/03/03 09:03:01;;;;;;;3.67;2.67;;;5.50;78.30;;;;;;5076162;28;20399;-74
2023/03/03 09:05:27;;;;;;;5.90;2.70;;;5.50;78.20;;;;;;5092517;28;20529;-74
2023/03/03 09:07:54;;;;;;;5.65;2.80;;;5.60;78.30;;;;;;5076104;28;20372;-80
2023/03/03 09:10:30;;;;;;;4.88;3.28;;;5.60;78.30;;;;;;5093115;28;20457;-80
2023/03/03 09:13:01;;;;;;;3.40;2.80;;;5.70;78.40;;;;;;5076412;28;20075;-80
2023/03/03 09:15:32;;;;;;;4.95;2.83;;;5.70;78.40;;;;;;5076190;28;20040;-80
2023/03/03 09:18:17;;;;;;;4.13;2.50;;;5.80;78.70;;;;;;5056200;28;20052;-81
2023/03/03 09:20:46;;;;;;;4.88;3.30;;;5.90;78.80;;;;;;5055928;28;20444;-81
2023/03/03 09:23:33;;;;;;;4.20;2.75;;;6.00;78.80;;;;;;5058610;28;20061;-80
2023/03/03 09:26:25;;;;;;;3.83;2.50;;;6.00;78.80;;;;;;5072276;28;20630;-80
2023/03/03 09:28:52;;;;;;;4.25;2.50;;;6.20;79.20;;;;;;5076166;28;20105;-80
2023/03/03 09:31:33;;;;;;;4.32;2.60;;;6.30;79.60;;;;;;5075919;28;20044;-79
2023/03/03 09:34:00;;;;;;;3.90;2.38;;;6.50;79.60;;;;;;5075710;28;20068;-79
2023/03/03 09:36:34;;;;;;;3.78;2.38;;;6.60;79.50;;;;;;5075783;28;20040;-79
2023/03/03 09:39:11;;;;;;;3.65;2.13;;;6.80;79.90;;;;;;5075561;28;20036;-79
2023/03/03 09:42:04;;;;;;;2.67;2.15;;;7.10;80.10;;;;;;5092234;28;20044;-79
2023/03/03 09:44:39;;;;;;;4.35;2.28;;;7.40;80.00;;;;;;5092351;28;20036;-79
2023/03/03 09:47:10;;;;;;;3.60;2.25;;;7.60;78.70;;;;;;5092444;28;20058;-80
2023/03/03 09:49:46;;;;;;;4.07;2.60;;;7.70;78.10;;;;;;5075365;28;20518;-79
2023/03/03 09:52:41;;;;;;;3.70;2.40;;;7.80;77.60;;;;;;5092391;28;20047;-79
2023/03/03 09:55:37;;;;;;;5.15;2.55;;;8.00;77.40;;;;;;5067050;28;20040;-80
2023/03/03 09:58:50;;;;;;;5.45;2.63;;;8.20;77.10;;;;;;5074437;28;20055;-79
2023/03/03 10:01:38;;;;;;;6.20;3.13;;;8.30;76.20;;;;;;5028952;28;20056;-79
2023/03/03 10:04:40;;;;;;;5.22;2.58;;;8.40;76.00;;;;;;5092098;28;20141;-79
2023/03/03 10:07:34;;;;;;;5.13;2.40;;;8.50;75.30;;;;;;5092026;28;20495;-79
2023/03/03 10:10:18;;;;;;;4.68;3.00;;;8.60;74.80;;;;;;5089024;28;20110;-79
2023/03/03 10:12:43;;;;;;;5.10;3.38;;;8.60;74.50;;;;;;5078082;28;20044;-79
2023/03/03 10:15:32;;;;;;;5.05;3.45;;;8.70;75.00;;;;;;5092105;28;20452;-79
2023/03/03 10:18:16;;;;;;;5.63;3.38;;;8.80;74.50;;;;;;5092392;28;20611;-79
2023/03/03 10:21:04;;;;;;;5.60;3.15;;;8.90;74.20;;;;;;5071757;28;20032;-80
2023/03/03 10:23:45;;;;;;;3.80;2.53;;;8.90;73.60;;;;;;5104979;28;20454;-79
2023/03/03 10:26:22;;;;;;;7.88;3.15;;;9.00;73.30;;;;;;5083481;28;20395;-80
2023/03/03 10:28:57;;;;;;;6.22;3.17;;;9.00;73.10;;;;;;5097151;28;20178;-79
2023/03/03 10:31:32;;;;;;;5.40;2.85;;;9.10;72.80;;;;;;5111903;28;20380;-79
2023/03/03 10:33:59;;;;;;;5.60;2.55;;;9.10;72.70;;;;;;5098923;28;20043;-80
2023/03/03 10:36:43;;;;;;;3.83;2.40;;;9.20;72.60;;;;;;5095973;28;20403;-80
2023/03/03 10:39:15;;;;;;;5.97;2.90;;;9.30;72.00;;;;;;5054953;28;20097;-80
2023/03/03 10:41:52;;;;;;;5.50;2.85;;;9.30;72.20;;;;;;5071578;28;20044;-80
2023/03/03 10:44:31;;;;;;;5.82;2.78;;;9.30;71.80;;;;;;5071416;28;20404;-79
2023/03/03 10:47:10;;;;;;;3.90;1.95;;;9.40;71.80;;;;;;5054821;28;20039;-79
2023/03/03 10:50:03;;;;;;;3.63;1.85;;;9.40;71.60;;;;;;5071589;28;20082;-79
2023/03/03 10:52:52;;;;;;;3.55;1.92;;;9.50;71.20;;;;;;5060940;28;20122;-79
2023/03/03 10:55:29;;;;;;;2.88;1.90;;;9.60;71.20;;;;;;5043753;28;20079;-79
2023/03/03 10:58:13;;;;;;;4.97;2.10;;;9.60;71.20;;;;;;5105071;28;20493;-79
2023/03/03 11:01:05;;;;;;;4.13;1.80;;;9.70;69.80;;;;;;5054367;28;20133;-79
2023/03/03 11:03:53;;;;;;;4.05;1.77;;;9.70;68.70;;;;;;5054451;28;20059;-79
2023/03/03 11:06:56;;;;;;;5.15;2.08;;;9.70;67.00;;;;;;5070888;28;20124;-79
2023/03/03 11:09:36;;;;;;;4.72;1.73;;;9.70;66.90;;;;;;5071509;28;20044;-79
2023/03/03 11:12:12;;;;;;;5.40;2.30;;;9.70;67.10;;;;;;5087112;28;20063;-80
2023/03/03 11:14:49;;;;;;;6.18;1.73;;;9.70;67.20;;;;;;5074779;28;20134;-80
2023/03/03 11:17:18;;;;;;;5.50;1.58;;;9.70;66.70;;;;;;5091902;28;20478;-79
2023/03/03 11:20:09;;;;;;;6.65;2.00;;;9.70;66.60;;;;;;5091684;28;20055;-80
2023/03/03 11:22:52;;;;;;;4.78;2.00;;;9.80;64.90;;;;;;5091721;28;20036;-79
2023/03/03 11:25:30;;;;;;;5.60;2.50;;;9.70;64.50;;;;;;5091607;28;20044;-79
2023/03/03 11:28:19;;;;;;;5.65;1.80;;;9.70;64.40;;;;;;5092024;28;20075;-79
2023/03/03 11:30:48;;;;;;;3.63;1.70;;;9.70;64.10;;;;;;5091446;28;20036;-79
2023/03/03 11:33:22;;;;;;;3.50;1.50;;;9.70;64.20;;;;;;5091397;28;20050;-80
2023/03/03 11:36:09;;;;;;;2.22;1.05;;;9.80;63.80;;;;;;5093814;28;20154;-80
2023/03/03 11:38:47;;;;;;;5.05;1.50;;;9.80;63.00;;;;;;5094918;28;20173;-79
2023/03/03 11:41:28;;;;;;;5.38;2.40;;;9.80;61.70;;;;;;5078344;28;20048;-79
2023/03/03 11:44:10;;;;;;;2.75;1.33;;;9.80;61.90;;;;;;5077824;28;20039;-79
2023/03/03 11:47:00;;;;;;;4.75;2.95;;;9.80;62.20;;;;;;5095223;28;20036;-80
2023/03/03 11:49:39;;;;;;;4.60;2.40;;;9.80;62.40;;;;;;5077938;28;20040;-79
2023/03/03 11:52:40;;;;;;;5.22;2.45;;;9.70;62.90;;;;;;5094706;28;20495;-79
2023/03/03 11:55:27;;;;;;;4.25;1.58;;;9.70;62.60;;;;;;5068117;28;20048;-79
2023/03/03 11:57:59;;;;;;;4.82;2.28;;;9.80;62.80;;;;;;5070273;28;20051;-80
2023/03/03 12:00:31;;;;;;;3.75;1.65;;;9.70;62.40;;;;;;5086737;28;20081;-79
2023/03/03 12:03:30;;;;;;;4.53;1.88;;;9.70;62.50;;;;;;5086380;28;20147;-80
2023/03/03 12:06:31;;;;;;;4.55;1.77;;;9.70;62.50;;;;;;5086931;28;20032;-79
2023/03/03 12:09:31;;;;;;;5.30;1.75;;;9.70;62.40;;;;;;5103186;28;20028;-79
2023/03/03 12:12:14;;;;;;;5.40;1.58;;;9.70;62.20;;;;;;5056019;28;20108;-80
2023/03/03 12:14:55;;;;;;;3.33;1.75;;;9.70;62.20;;;;;;5085778;28;20515;-80
2023/03/03 12:17:48;;;;;;;3.08;1.00;;;9.70;62.00;;;;;;5083762;28;20036;-78
2023/03/03 12:20:42;;;;;;;4.65;1.40;;;9.80;61.00;;;;;;5100864;28;20093;-78
2023/03/03 12:23:07;;;;;;;2.85;1.10;;;9.70;60.70;;;;;;5117422;27;20062;-79
2023/03/03 12:25:47;;;;;;;4.97;1.20;;;9.70;61.20;;;;;;5086682;28;20032;-79
2023/03/03 12:28:29;;;;;;;5.45;1.00;;;9.70;60.60;;;;;;5117929;27;20411;-79
2023/03/03 12:30:57;;;;;;;3.17;1.25;;;9.80;60.50;;;;;;5087082;28;20040;-79
2023/03/03 12:33:49;;;;;;;3.85;0.90;;;9.70;60.50;;;;;;5086843;28;20040;-80
2023/03/03 12:36:20;;;;;;;3.78;1.00;;;9.80;59.90;;;;;;5103639;28;20575;-79
2023/03/03 12:39:04;;;;;;;3.45;0.77;;;9.80;59.70;;;;;;5087136;28;20101;-79
2023/03/03 12:41:39;;;;;;;3.25;1.00;;;9.80;59.10;;;;;;5082650;28;20086;-79
2023/03/03 12:44:23;;;;;;;3.15;1.40;;;9.80;59.60;;;;;;5075182;28;20047;-79
2023/03/03 12:46:51;;;;;;;2.45;1.50;;;9.80;59.30;;;;;;5079127;28;20040;-80
2023/03/03 12:49:18;;;;;;;2.80;1.60;;;9.80;59.40;;;;;;5078889;28;20048;-80
2023/03/03 12:52:14;;;;;;;3.42;1.20;;;9.80;59.40;;;;;;5078546;28;20048;-80
2023/03/03 12:54:55;;;;;;;2.92;1.10;;;9.80;59.50;;;;;;5061520;28;20040;-79
2023/03/03 12:57:51;;;;;;;4.13;1.30;;;9.90;59.30;;;;;;5078398;28;20100;-80
2023/03/03 13:00:23;;;;;;;4.38;1.17;;;9.80;59.80;;;;;;5061077;28;20105;-80
2023/03/03 13:03:00;;;;;;;5.88;1.10;;;9.80;59.80;;;;;;5078139;28;21773;-80
2023/03/03 13:05:48;;;;;;;3.78;0.98;;;9.80;59.40;;;;;;5110284;27;20449;-79
2023/03/03 13:08:30;;;;;;;2.53;1.10;;;9.90;59.40;;;;;;5078510;28;20036;-78
2023/03/03 13:11:32;;;;;;;3.72;0.88;;;9.80;59.20;;;;;;5077748;28;21383;-79
2023/03/03 13:14:10;;;;;;;4.80;1.65;;;9.80;59.00;;;;;;5078527;28;20055;-78
2023/03/03 13:16:48;;;;;;;6.10;1.40;;;9.80;59.00;;;;;;5078153;28;20044;-79
2023/03/03 13:19:27;;;;;;;3.92;0.80;;;9.90;58.80;;;;;;5065009;28;20502;-79